createdAt,value
2022-10-08T00:00:31.787Z,994.63
2022-10-08T00:01:30.825Z,994.61
2022-10-08T00:02:30.765Z,994.58
2022-10-08T00:03:30.758Z,994.55
2022-10-08T00:04:30.811Z,994.55
2022-10-08T00:05:30.752Z,994.54
2022-10-08T00:06:30.777Z,994.55
2022-10-08T00:07:30.717Z,994.54
2022-10-08T00:08:30.723Z,994.56
2022-10-08T00:09:30.721Z,994.60
2022-10-08T00:10:31.295Z,994.55
2022-10-08T00:11:30.690Z,994.52
2022-10-08T00:12:30.681Z,994.55
2022-10-08T00:13:31.294Z,994.56
2022-10-08T00:14:30.682Z,994.60
2022-10-08T00:15:30.660Z,994.64
2022-10-08T00:16:30.725Z,994.56
2022-10-08T00:17:30.648Z,994.56
2022-10-08T00:18:30.651Z,994.56
2022-10-08T00:19:30.634Z,994.49
2022-10-08T00:20:30.626Z,994.53
2022-10-08T00:21:30.614Z,994.57
2022-10-08T00:22:30.614Z,994.57
2022-10-08T00:23:30.600Z,994.55
2022-10-08T00:24:30.597Z,994.57
2022-10-08T00:25:30.581Z,994.53
2022-10-08T00:26:30.573Z,994.60
2022-10-08T00:27:30.568Z,994.62
2022-10-08T00:28:30.693Z,994.59
2022-10-08T00:30:30.483Z,994.63
2022-10-08T00:31:30.553Z,994.60
2022-10-08T00:32:30.477Z,994.64
2022-10-08T00:33:30.462Z,994.66
2022-10-08T00:34:30.461Z,994.67
2022-10-08T00:35:30.442Z,994.63
2022-10-08T00:36:30.441Z,994.66
2022-10-08T00:37:30.431Z,994.63
2022-10-08T00:38:30.422Z,994.68
2022-10-08T00:39:30.417Z,994.64
2022-10-08T00:40:31.504Z,994.67
2022-10-08T00:41:31.490Z,994.67
2022-10-08T00:42:31.481Z,994.65
2022-10-08T00:43:31.476Z,994.68
2022-10-08T00:44:31.461Z,994.66
2022-10-08T00:45:31.518Z,994.69
2022-10-08T00:46:31.449Z,994.68
2022-10-08T00:47:31.447Z,994.51
2022-10-08T00:48:31.423Z,994.59
2022-10-08T00:49:32.422Z,994.64
2022-10-08T00:50:31.425Z,994.65
2022-10-08T00:51:31.407Z,994.63
2022-10-08T00:52:31.401Z,994.58
2022-10-08T00:53:31.391Z,994.61
2022-10-08T00:54:31.395Z,994.53
2022-10-08T00:55:31.388Z,994.54
2022-10-08T00:56:31.370Z,994.64
2022-10-08T00:57:31.368Z,994.59
2022-10-08T00:58:31.362Z,994.61
2022-10-08T00:59:31.346Z,994.60
2022-10-08T01:00:31.421Z,994.61
2022-10-08T01:01:31.330Z,994.66
2022-10-08T01:02:31.401Z,994.61
2022-10-08T01:03:31.307Z,994.55
2022-10-08T01:04:31.312Z,994.59
2022-10-08T01:05:31.308Z,994.61
2022-10-08T01:06:31.285Z,994.59
2022-10-08T01:07:31.288Z,994.57
2022-10-08T01:08:31.269Z,994.44
2022-10-08T01:09:31.265Z,994.50
2022-10-08T01:10:31.260Z,994.56
2022-10-08T01:11:31.243Z,994.56
2022-10-08T01:12:31.897Z,994.60
2022-10-08T01:13:31.222Z,994.59
2022-10-08T01:14:31.962Z,994.64
2022-10-08T01:15:31.229Z,994.58
2022-10-08T01:16:31.262Z,994.58
2022-10-08T01:17:31.195Z,994.60
2022-10-08T01:18:31.200Z,994.54
2022-10-08T01:19:31.276Z,994.55
2022-10-08T01:20:31.195Z,994.61
2022-10-08T01:21:31.157Z,994.57
2022-10-08T01:22:31.151Z,994.53
2022-10-08T01:23:31.152Z,994.53
2022-10-08T01:24:31.133Z,994.51
2022-10-08T01:25:31.122Z,994.52
2022-10-08T01:26:31.123Z,994.50
2022-10-08T01:27:31.106Z,994.50
2022-10-08T01:28:31.266Z,994.47
2022-10-08T01:29:31.964Z,994.45
2022-10-08T01:30:31.092Z,994.52
2022-10-08T01:31:31.197Z,994.50
2022-10-08T01:32:31.073Z,994.48
2022-10-08T01:33:31.063Z,994.45
2022-10-08T01:34:31.051Z,994.48
2022-10-08T01:35:31.043Z,994.45
2022-10-08T01:36:31.042Z,994.46
2022-10-08T01:37:31.029Z,994.45
2022-10-08T01:38:31.011Z,994.45
2022-10-08T01:39:31.008Z,994.46
2022-10-08T01:40:31.000Z,994.45
2022-10-08T01:41:31.027Z,994.44
2022-10-08T01:42:30.980Z,994.44
2022-10-08T01:43:30.968Z,994.47
2022-10-08T01:44:30.962Z,994.50
2022-10-08T01:45:31.068Z,994.47
2022-10-08T01:46:30.944Z,994.46
2022-10-08T01:47:30.965Z,994.45
2022-10-08T01:48:30.937Z,994.41
2022-10-08T01:49:30.930Z,994.44
2022-10-08T01:50:30.942Z,994.39
2022-10-08T01:51:30.925Z,994.38
2022-10-08T01:52:30.910Z,994.26
2022-10-08T01:53:30.898Z,994.23
2022-10-08T01:54:30.888Z,994.28
2022-10-08T01:55:30.956Z,994.31
2022-10-08T01:56:30.862Z,994.28
2022-10-08T01:57:30.863Z,994.30
2022-10-08T01:58:30.860Z,994.30
2022-10-08T01:59:30.845Z,994.30
2022-10-08T02:00:30.869Z,994.32
2022-10-08T02:01:30.873Z,994.29
2022-10-08T02:02:30.921Z,994.27
2022-10-08T02:03:30.806Z,994.31
2022-10-08T02:04:30.809Z,994.32
2022-10-08T02:05:31.361Z,994.32
2022-10-08T02:06:30.799Z,994.29
2022-10-08T02:07:30.775Z,994.25
2022-10-08T02:08:30.771Z,994.32
2022-10-08T02:09:30.765Z,994.29
2022-10-08T02:10:30.754Z,994.37
2022-10-08T02:11:30.754Z,994.29
2022-10-08T02:12:30.740Z,994.32
2022-10-08T02:13:30.724Z,994.38
2022-10-08T02:14:30.720Z,994.32
2022-10-08T02:15:30.739Z,994.37
2022-10-08T02:16:30.777Z,994.36
2022-10-08T02:17:31.702Z,994.34
2022-10-08T02:18:30.692Z,994.35
2022-10-08T02:19:30.687Z,994.39
2022-10-08T02:20:30.668Z,994.47
2022-10-08T02:21:30.663Z,994.41
2022-10-08T02:22:30.657Z,994.43
2022-10-08T02:23:30.643Z,994.44
2022-10-08T02:24:30.652Z,994.43
2022-10-08T02:25:34.423Z,994.43
2022-10-08T02:26:30.616Z,994.40
2022-10-08T02:27:30.611Z,994.38
2022-10-08T02:28:30.658Z,994.37
2022-10-08T02:29:30.591Z,994.38
2022-10-08T02:30:30.600Z,994.34
2022-10-08T02:31:30.609Z,994.39
2022-10-08T02:32:30.587Z,994.40
2022-10-08T02:33:30.577Z,994.44
2022-10-08T02:34:30.577Z,994.40
2022-10-08T02:35:30.555Z,994.42
2022-10-08T02:36:30.545Z,994.38
2022-10-08T02:37:30.533Z,994.45
2022-10-08T02:38:31.443Z,994.44
2022-10-08T02:39:30.528Z,994.35
2022-10-08T02:40:30.566Z,994.37
2022-10-08T02:41:30.511Z,994.35
2022-10-08T02:42:30.503Z,994.41
2022-10-08T02:43:30.496Z,994.43
2022-10-08T02:44:30.476Z,994.40
2022-10-08T02:45:30.514Z,994.38
2022-10-08T02:46:30.460Z,994.38
2022-10-08T02:47:30.455Z,994.43
2022-10-08T02:48:30.452Z,994.43
2022-10-08T02:49:30.443Z,994.36
2022-10-08T02:50:30.432Z,994.44
2022-10-08T02:51:30.431Z,994.48
2022-10-08T02:52:30.421Z,994.45
2022-10-08T02:53:30.408Z,994.45
2022-10-08T02:54:30.396Z,994.41
2022-10-08T02:55:30.394Z,994.40
2022-10-08T02:56:30.385Z,994.37
2022-10-08T02:58:36.353Z,994.40
2022-10-08T02:59:36.345Z,994.44
2022-10-08T03:00:36.359Z,994.41
2022-10-08T03:01:37.483Z,994.38
2022-10-08T03:02:37.495Z,994.44
2022-10-08T03:03:37.412Z,994.41
2022-10-08T03:04:37.405Z,994.46
2022-10-08T03:05:37.393Z,994.45
2022-10-08T03:06:37.388Z,994.46
2022-10-08T03:07:37.389Z,994.50
2022-10-08T03:08:37.385Z,994.51
2022-10-08T03:09:37.357Z,994.53
2022-10-08T03:10:37.344Z,994.59
2022-10-08T03:11:37.344Z,994.59
2022-10-08T03:12:37.333Z,994.53
2022-10-08T03:13:37.322Z,994.53
2022-10-08T03:14:37.315Z,994.53
2022-10-08T03:15:37.311Z,994.46
2022-10-08T03:16:38.147Z,994.51
2022-10-08T03:17:37.296Z,994.54
2022-10-08T03:18:37.298Z,994.55
2022-10-08T03:19:37.273Z,994.56
2022-10-08T03:20:37.268Z,994.53
2022-10-08T03:21:37.280Z,994.60
2022-10-08T03:22:37.250Z,994.53
2022-10-08T03:23:37.246Z,994.59
2022-10-08T03:24:37.233Z,994.58
2022-10-08T03:25:37.227Z,994.64
2022-10-08T03:26:37.226Z,994.59
2022-10-08T03:27:37.216Z,994.61
2022-10-08T03:28:37.245Z,994.62
2022-10-08T03:29:37.202Z,994.59
2022-10-08T03:30:37.230Z,994.60
2022-10-08T03:31:37.178Z,994.56
2022-10-08T03:32:37.168Z,994.58
2022-10-08T03:33:37.179Z,994.56
2022-10-08T03:34:37.160Z,994.58
2022-10-08T03:35:37.151Z,994.59
2022-10-08T03:36:37.136Z,994.61
2022-10-08T03:37:37.130Z,994.58
2022-10-08T03:38:37.129Z,994.61
2022-10-08T03:39:37.113Z,994.61
2022-10-08T03:40:37.104Z,994.56
2022-10-08T03:41:37.097Z,994.60
2022-10-08T03:42:37.108Z,994.58
2022-10-08T03:43:37.093Z,994.59
2022-10-08T03:44:37.081Z,994.57
2022-10-08T03:45:37.064Z,994.56
2022-10-08T03:46:37.097Z,994.56
2022-10-08T03:47:37.067Z,994.58
2022-10-08T03:48:37.061Z,994.56
2022-10-08T03:49:37.034Z,994.60
2022-10-08T03:50:37.028Z,994.68
2022-10-08T03:51:37.589Z,994.61
2022-10-08T03:52:37.011Z,994.64
2022-10-08T03:53:37.050Z,994.62
2022-10-08T03:54:36.992Z,994.65
2022-10-08T03:55:36.989Z,994.68
2022-10-08T03:56:36.984Z,994.65
2022-10-08T03:57:36.966Z,994.62
2022-10-08T03:58:36.969Z,994.64
2022-10-08T03:59:36.963Z,994.72
2022-10-08T04:00:36.950Z,994.74
2022-10-08T04:01:37.022Z,994.76
2022-10-08T04:02:36.967Z,994.78
2022-10-08T04:03:36.922Z,994.74
2022-10-08T04:04:36.922Z,994.79
2022-10-08T04:05:36.919Z,994.73
2022-10-08T04:06:36.898Z,994.74
2022-10-08T04:07:37.516Z,994.70
2022-10-08T04:08:36.877Z,994.67
2022-10-08T04:09:36.884Z,994.67
2022-10-08T04:10:36.868Z,994.66
2022-10-08T04:11:37.599Z,994.67
2022-10-08T04:12:36.877Z,994.72
2022-10-08T04:13:36.837Z,994.67
2022-10-08T04:14:36.839Z,994.66
2022-10-08T04:15:36.871Z,994.64
2022-10-08T04:16:36.817Z,994.68
2022-10-08T04:17:36.807Z,994.71
2022-10-08T04:18:37.594Z,994.62
2022-10-08T04:19:36.792Z,994.63
2022-10-08T04:20:36.782Z,994.69
2022-10-08T04:21:36.786Z,994.61
2022-10-08T04:22:36.773Z,994.71
2022-10-08T04:23:36.774Z,994.70
2022-10-08T04:24:36.760Z,994.72
2022-10-08T04:25:36.755Z,994.68
2022-10-08T04:26:36.735Z,994.72
2022-10-08T04:27:36.730Z,994.68
2022-10-08T04:28:38.909Z,994.72
2022-10-08T04:29:37.722Z,994.73
2022-10-08T04:30:36.706Z,994.69
2022-10-08T04:31:36.709Z,994.74
2022-10-08T04:32:36.687Z,994.72
2022-10-08T04:33:36.695Z,994.69
2022-10-08T04:34:36.687Z,994.74
2022-10-08T04:35:36.668Z,994.74
2022-10-08T04:36:36.675Z,994.72
2022-10-08T04:37:36.655Z,994.71
2022-10-08T04:38:36.650Z,994.78
2022-10-08T04:39:36.636Z,994.77
2022-10-08T04:40:36.628Z,994.80
2022-10-08T04:41:36.634Z,994.79
2022-10-08T04:42:36.609Z,994.87
2022-10-08T04:43:36.611Z,994.87
2022-10-08T04:44:36.596Z,994.87
2022-10-08T04:45:36.587Z,994.86
2022-10-08T04:46:36.713Z,994.86
2022-10-08T04:47:36.569Z,994.86
2022-10-08T04:48:36.562Z,994.87
2022-10-08T04:49:36.549Z,994.86
2022-10-08T04:50:36.549Z,994.89
2022-10-08T04:51:36.548Z,994.94
2022-10-08T04:52:36.548Z,994.88
2022-10-08T04:53:36.523Z,994.91
2022-10-08T04:54:36.530Z,994.93
2022-10-08T04:55:36.506Z,994.87
2022-10-08T04:56:36.510Z,994.85
2022-10-08T04:57:36.507Z,994.91
2022-10-08T04:58:36.494Z,994.85
2022-10-08T04:59:45.062Z,994.87
2022-10-08T05:00:37.476Z,994.90
2022-10-08T05:01:36.511Z,994.88
2022-10-08T05:02:36.572Z,994.90
2022-10-08T05:03:36.448Z,994.95
2022-10-08T05:04:36.435Z,994.95
2022-10-08T05:05:36.432Z,994.97
2022-10-08T05:06:36.424Z,995.03
2022-10-08T05:07:36.431Z,994.99
2022-10-08T05:08:36.408Z,995.00
2022-10-08T05:09:36.395Z,994.97
2022-10-08T05:10:36.397Z,994.98
2022-10-08T05:11:36.410Z,994.98
2022-10-08T05:12:36.382Z,995.02
2022-10-08T05:13:36.374Z,995.00
2022-10-08T05:14:36.354Z,995.03
2022-10-08T05:15:36.415Z,995.03
2022-10-08T05:16:36.343Z,995.02
2022-10-08T05:17:36.326Z,994.95
2022-10-08T05:18:36.325Z,995.00
2022-10-08T05:19:36.335Z,994.96
2022-10-08T05:20:36.311Z,995.00
2022-10-08T05:21:36.333Z,994.95
2022-10-08T05:22:36.291Z,994.94
2022-10-08T05:23:36.290Z,994.91
2022-10-08T05:24:36.282Z,994.92
2022-10-08T05:25:36.272Z,994.95
2022-10-08T05:26:56.961Z,994.89
2022-10-08T05:27:38.279Z,994.88
2022-10-08T05:28:36.371Z,994.94
2022-10-08T05:29:36.243Z,994.91
2022-10-08T05:30:36.236Z,994.84
2022-10-08T05:31:36.346Z,994.83
2022-10-08T05:32:37.034Z,994.78
2022-10-08T05:33:36.202Z,994.80
2022-10-08T05:34:36.199Z,994.77
2022-10-08T05:35:36.202Z,994.83
2022-10-08T05:36:36.172Z,994.83
2022-10-08T05:37:36.172Z,994.89
2022-10-08T05:38:36.159Z,994.81
2022-10-08T05:39:36.173Z,994.80
2022-10-08T05:40:36.147Z,994.83
2022-10-08T05:41:36.133Z,994.87
2022-10-08T05:42:36.126Z,994.89
2022-10-08T05:43:36.116Z,994.88
2022-10-08T05:44:37.714Z,994.88
2022-10-08T05:45:37.118Z,994.87
2022-10-08T05:46:36.127Z,994.90
2022-10-08T05:47:36.083Z,994.89
2022-10-08T05:48:36.073Z,995.03
2022-10-08T05:49:36.617Z,995.00
2022-10-08T05:50:36.073Z,995.00
2022-10-08T05:51:36.052Z,995.00
2022-10-08T05:52:36.047Z,994.95
2022-10-08T05:53:36.036Z,994.99
2022-10-08T05:54:36.040Z,994.94
2022-10-08T05:55:36.015Z,995.00
2022-10-08T05:56:36.032Z,995.02
2022-10-08T05:57:36.003Z,995.05
2022-10-08T05:58:35.992Z,995.01
2022-10-08T05:59:35.981Z,995.07
2022-10-08T06:00:35.976Z,995.01
2022-10-08T06:01:35.975Z,995.06
2022-10-08T06:02:36.045Z,995.07
2022-10-08T06:03:35.955Z,995.13
2022-10-08T06:04:35.970Z,995.12
2022-10-08T06:05:35.941Z,995.08
2022-10-08T06:06:35.944Z,995.13
2022-10-08T06:07:35.923Z,995.13
2022-10-08T06:08:35.909Z,995.12
2022-10-08T06:09:35.906Z,995.12
2022-10-08T06:10:35.895Z,995.12
2022-10-08T06:11:35.898Z,995.15
2022-10-08T06:12:35.879Z,995.16
2022-10-08T06:13:35.891Z,995.17
2022-10-08T06:14:35.865Z,995.27
2022-10-08T06:15:35.854Z,995.27
2022-10-08T06:16:35.932Z,995.34
2022-10-08T06:17:35.849Z,995.35
2022-10-08T06:18:35.835Z,995.40
2022-10-08T06:19:35.838Z,995.43
2022-10-08T06:20:35.810Z,995.40
2022-10-08T06:21:35.810Z,995.46
2022-10-08T06:22:35.794Z,995.45
2022-10-08T06:23:35.790Z,995.45
2022-10-08T06:24:36.505Z,995.45
2022-10-08T06:25:35.770Z,995.43
2022-10-08T06:26:36.416Z,995.48
2022-10-08T06:27:37.546Z,995.44
2022-10-08T06:28:35.807Z,995.46
2022-10-08T06:29:35.734Z,995.49
2022-10-08T06:30:35.722Z,995.47
2022-10-08T06:31:36.862Z,995.46
2022-10-08T06:32:35.715Z,995.43
2022-10-08T06:33:35.713Z,995.44
2022-10-08T06:34:35.695Z,995.43
2022-10-08T06:35:35.717Z,995.50
2022-10-08T06:36:35.681Z,995.45
2022-10-08T06:37:35.667Z,995.51
2022-10-08T06:38:35.728Z,995.49
2022-10-08T06:39:35.767Z,995.49
2022-10-08T06:40:35.651Z,995.52
2022-10-08T06:41:35.644Z,995.59
2022-10-08T06:42:35.631Z,995.52
2022-10-08T06:43:35.620Z,995.55
2022-10-08T06:44:35.610Z,995.56
2022-10-08T06:45:35.609Z,995.55
2022-10-08T06:46:35.676Z,995.51
2022-10-08T06:47:35.589Z,995.56
2022-10-08T06:48:35.577Z,995.54
2022-10-08T06:49:35.574Z,995.59
2022-10-08T06:50:35.575Z,995.57
2022-10-08T06:51:35.571Z,995.54
2022-10-08T06:52:35.584Z,995.56
2022-10-08T06:53:35.546Z,995.53
2022-10-08T06:54:35.531Z,995.51
2022-10-08T06:55:35.531Z,995.57
2022-10-08T06:56:35.533Z,995.61
2022-10-08T06:57:35.514Z,995.60
2022-10-08T06:58:35.504Z,995.62
2022-10-08T06:59:35.502Z,995.67
2022-10-08T07:00:35.597Z,995.62
2022-10-08T07:01:35.913Z,995.66
2022-10-08T07:02:35.576Z,995.69
2022-10-08T07:03:35.462Z,995.68
2022-10-08T07:04:35.453Z,995.67
2022-10-08T07:05:35.451Z,995.74
2022-10-08T07:06:35.446Z,995.76
2022-10-08T07:07:35.435Z,995.71
2022-10-08T07:08:35.414Z,995.73
2022-10-08T07:09:35.422Z,995.67
2022-10-08T07:10:35.398Z,995.67
2022-10-08T07:11:35.421Z,995.73
2022-10-08T07:12:35.383Z,995.70
2022-10-08T07:13:35.376Z,995.67
2022-10-08T07:14:35.370Z,995.69
2022-10-08T07:15:35.358Z,995.67
2022-10-08T07:16:35.403Z,995.72
2022-10-08T07:17:35.374Z,995.74
2022-10-08T07:18:35.334Z,995.84
2022-10-08T07:19:35.326Z,995.80
2022-10-08T07:20:35.328Z,995.74
2022-10-08T07:21:35.311Z,995.80
2022-10-08T07:22:35.312Z,995.77
2022-10-08T07:23:35.300Z,995.79
2022-10-08T07:24:35.288Z,995.75
2022-10-08T07:25:35.279Z,995.76
2022-10-08T07:26:35.276Z,995.74
2022-10-08T07:27:35.277Z,995.81
2022-10-08T07:28:35.272Z,995.79
2022-10-08T07:29:35.252Z,995.85
2022-10-08T07:30:35.250Z,995.81
2022-10-08T07:31:35.326Z,995.79
2022-10-08T07:32:36.061Z,995.76
2022-10-08T07:33:35.210Z,995.80
2022-10-08T07:34:35.214Z,995.77
2022-10-08T07:35:35.216Z,995.75
2022-10-08T07:36:35.195Z,995.74
2022-10-08T07:37:35.179Z,995.74
2022-10-08T07:38:35.179Z,995.73
2022-10-08T07:39:35.162Z,995.73
2022-10-08T07:40:35.159Z,995.77
2022-10-08T07:41:35.152Z,995.79
2022-10-08T07:42:35.144Z,995.75
2022-10-08T07:43:35.148Z,995.73
2022-10-08T07:44:35.123Z,995.77
2022-10-08T07:45:35.153Z,995.73
2022-10-08T07:46:35.132Z,995.71
2022-10-08T07:47:35.111Z,995.76
2022-10-08T07:48:35.097Z,995.84
2022-10-08T07:49:35.080Z,995.88
2022-10-08T07:50:36.079Z,995.81
2022-10-08T07:51:35.068Z,995.94
2022-10-08T07:52:35.058Z,996.00
2022-10-08T07:53:35.063Z,996.02
2022-10-08T07:54:35.049Z,995.95
2022-10-08T07:55:35.033Z,996.02
2022-10-08T07:56:35.033Z,996.05
2022-10-08T07:57:35.021Z,996.05
2022-10-08T07:58:35.011Z,995.97
2022-10-08T07:59:35.022Z,995.96
2022-10-08T08:00:35.043Z,996.01
2022-10-08T08:01:34.982Z,996.04
2022-10-08T08:02:35.023Z,996.01
2022-10-08T08:03:35.583Z,996.02
2022-10-08T08:04:34.964Z,996.01
2022-10-08T08:05:34.950Z,995.94
2022-10-08T08:06:34.945Z,995.93
2022-10-08T08:07:34.938Z,996.00
2022-10-08T08:08:34.937Z,995.98
2022-10-08T08:09:34.919Z,996.07
2022-10-08T08:10:34.913Z,996.06
2022-10-08T08:11:34.911Z,996.06
2022-10-08T08:12:34.917Z,996.06
2022-10-08T08:13:37.199Z,996.10
2022-10-08T08:14:37.589Z,996.10
2022-10-08T08:15:34.870Z,996.05
2022-10-08T08:16:34.953Z,996.13
2022-10-08T08:17:34.872Z,996.14
2022-10-08T08:18:34.842Z,996.10
2022-10-08T08:19:34.841Z,996.03
2022-10-08T08:20:34.824Z,996.05
2022-10-08T08:21:34.825Z,996.04
2022-10-08T08:22:34.815Z,996.10
2022-10-08T08:23:34.805Z,996.07
2022-10-08T08:24:36.576Z,996.15
2022-10-08T08:25:34.785Z,996.12
2022-10-08T08:26:34.773Z,996.12
2022-10-08T08:27:34.773Z,996.16
2022-10-08T08:28:35.712Z,996.07
2022-10-08T08:29:35.759Z,996.10
2022-10-08T08:30:34.747Z,996.07
2022-10-08T08:31:34.942Z,996.11
2022-10-08T08:32:34.738Z,996.16
2022-10-08T08:33:34.722Z,996.22
2022-10-08T08:34:34.721Z,996.23
2022-10-08T08:35:34.703Z,996.19
2022-10-08T08:36:34.700Z,996.25
2022-10-08T08:37:34.692Z,996.23
2022-10-08T08:38:34.677Z,996.20
2022-10-08T08:39:34.683Z,996.24
2022-10-08T08:40:34.673Z,996.24
2022-10-08T08:41:34.665Z,996.24
2022-10-08T08:42:34.651Z,996.28
2022-10-08T08:43:34.679Z,996.20
2022-10-08T08:44:34.651Z,996.26
2022-10-08T08:45:46.355Z,996.21
2022-10-08T08:46:35.646Z,996.26
2022-10-08T08:47:34.614Z,996.25
2022-10-08T08:48:34.604Z,996.32
2022-10-08T08:49:35.083Z,996.30
2022-10-08T08:50:35.584Z,996.32
2022-10-08T08:51:34.587Z,996.30
2022-10-08T08:52:34.576Z,996.33
2022-10-08T08:53:34.587Z,996.31
2022-10-08T08:54:34.567Z,996.36
2022-10-08T08:55:34.571Z,996.42
2022-10-08T08:56:34.544Z,996.33
2022-10-08T08:57:34.532Z,996.37
2022-10-08T08:58:34.543Z,996.42
2022-10-08T08:59:34.538Z,996.35
2022-10-08T09:00:34.510Z,996.43
2022-10-08T09:01:34.574Z,996.46
2022-10-08T09:02:35.162Z,996.48
2022-10-08T09:03:34.499Z,996.43
2022-10-08T09:04:34.498Z,996.43
2022-10-08T09:05:34.620Z,996.53
2022-10-08T09:06:34.467Z,996.50
2022-10-08T09:07:34.461Z,996.47
2022-10-08T09:08:34.468Z,996.47
2022-10-08T09:09:35.165Z,996.58
2022-10-08T09:10:34.437Z,996.56
2022-10-08T09:11:34.447Z,996.55
2022-10-08T09:12:34.427Z,996.57
2022-10-08T09:13:34.424Z,996.56
2022-10-08T09:14:34.403Z,996.60
2022-10-08T09:15:35.174Z,996.58
2022-10-08T09:16:35.133Z,996.60
2022-10-08T09:17:34.376Z,996.57
2022-10-08T09:18:34.376Z,996.62
2022-10-08T09:19:34.370Z,996.59
2022-10-08T09:20:39.328Z,996.60
2022-10-08T09:21:36.369Z,996.62
2022-10-08T09:22:34.349Z,996.61
2022-10-08T09:23:34.339Z,996.68
2022-10-08T09:24:34.327Z,996.71
2022-10-08T09:25:34.318Z,996.74
2022-10-08T09:26:34.313Z,996.68
2022-10-08T09:27:34.301Z,996.71
2022-10-08T09:28:34.354Z,996.77
2022-10-08T09:29:34.281Z,996.82
2022-10-08T09:30:34.372Z,996.81
2022-10-08T09:31:34.322Z,996.82
2022-10-08T09:32:34.268Z,996.88
2022-10-08T09:33:34.303Z,996.90
2022-10-08T09:34:34.271Z,996.89
2022-10-08T09:35:34.237Z,996.91
2022-10-08T09:36:34.232Z,996.89
2022-10-08T09:37:34.232Z,996.89
2022-10-08T09:38:34.223Z,996.89
2022-10-08T09:39:34.218Z,996.91
2022-10-08T09:40:34.202Z,996.88
2022-10-08T09:41:35.099Z,996.95
2022-10-08T09:42:34.176Z,996.91
2022-10-08T09:43:34.167Z,996.93
2022-10-08T09:44:34.174Z,997.03
2022-10-08T09:45:34.153Z,997.03
2022-10-08T09:46:34.147Z,997.02
2022-10-08T09:47:34.140Z,996.97
2022-10-08T09:48:34.130Z,997.01
2022-10-08T09:49:34.137Z,997.01
2022-10-08T09:50:34.119Z,997.05
2022-10-08T09:51:34.161Z,997.01
2022-10-08T09:52:34.102Z,997.01
2022-10-08T09:53:34.093Z,997.05
2022-10-08T09:54:34.085Z,997.07
2022-10-08T09:55:34.087Z,997.07
2022-10-08T09:56:34.071Z,997.10
2022-10-08T09:57:34.063Z,997.10
2022-10-08T09:58:34.066Z,997.05
2022-10-08T09:59:34.051Z,997.12
2022-10-08T10:00:34.040Z,997.06
2022-10-08T10:01:34.099Z,997.10
2022-10-08T10:02:34.022Z,996.98
2022-10-08T10:03:34.052Z,997.06
2022-10-08T10:04:34.011Z,997.12
2022-10-08T10:05:34.000Z,997.13
2022-10-08T10:06:33.997Z,997.15
2022-10-08T10:07:33.982Z,997.18
2022-10-08T10:08:34.693Z,997.22
2022-10-08T10:09:33.968Z,997.21
2022-10-08T10:10:33.966Z,997.22
2022-10-08T10:11:33.953Z,997.23
2022-10-08T10:12:33.944Z,997.27
2022-10-08T10:13:33.934Z,997.26
2022-10-08T10:14:33.933Z,997.30
2022-10-08T10:15:33.945Z,997.22
2022-10-08T10:16:34.036Z,997.29
2022-10-08T10:17:33.903Z,997.31
2022-10-08T10:18:33.887Z,997.33
2022-10-08T10:19:33.898Z,997.40
2022-10-08T10:20:33.869Z,997.29
2022-10-08T10:21:33.870Z,997.34
2022-10-08T10:22:33.855Z,997.36
2022-10-08T10:23:33.858Z,997.32
2022-10-08T10:24:34.710Z,997.33
2022-10-08T10:25:33.842Z,997.30
2022-10-08T10:26:33.824Z,997.34
2022-10-08T10:27:33.811Z,997.29
2022-10-08T10:28:33.895Z,997.33
2022-10-08T10:29:33.810Z,997.34
2022-10-08T10:30:33.832Z,997.37
2022-10-08T10:31:33.779Z,997.42
2022-10-08T10:32:33.794Z,997.42
2022-10-08T10:33:33.772Z,997.46
2022-10-08T10:34:33.764Z,997.38
2022-10-08T10:35:33.757Z,997.38
2022-10-08T10:36:33.740Z,997.33
2022-10-08T10:37:33.738Z,997.33
2022-10-08T10:38:33.718Z,997.32
2022-10-08T10:39:34.695Z,997.37
2022-10-08T10:40:33.718Z,997.32
2022-10-08T10:41:33.696Z,997.34
2022-10-08T10:42:33.701Z,997.40
2022-10-08T10:43:33.687Z,997.40
2022-10-08T10:44:33.691Z,997.33
2022-10-08T10:45:33.679Z,997.37
2022-10-08T10:46:33.715Z,997.36
2022-10-08T10:47:33.649Z,997.40
2022-10-08T10:48:33.644Z,997.42
2022-10-08T10:49:33.631Z,997.39
2022-10-08T10:50:33.632Z,997.45
2022-10-08T10:51:33.623Z,997.40
2022-10-08T10:52:33.627Z,997.40
2022-10-08T10:53:33.600Z,997.35
2022-10-08T10:54:33.602Z,997.38
2022-10-08T10:55:33.619Z,997.42
2022-10-08T10:56:33.573Z,997.40
2022-10-08T10:57:33.581Z,997.42
2022-10-08T10:58:33.564Z,997.36
2022-10-08T10:59:33.554Z,997.39
2022-10-08T11:00:33.580Z,997.36
2022-10-08T11:01:33.631Z,997.38
2022-10-08T11:02:33.562Z,997.37
2022-10-08T11:03:33.520Z,997.43
2022-10-08T11:04:33.513Z,997.38
2022-10-08T11:05:33.542Z,997.45
2022-10-08T11:06:33.498Z,997.46
2022-10-08T11:07:33.557Z,997.40
2022-10-08T11:08:34.122Z,997.46
2022-10-08T11:09:35.127Z,997.43
2022-10-08T11:10:33.466Z,997.41
2022-10-08T11:11:33.481Z,997.40
2022-10-08T11:12:33.471Z,997.42
2022-10-08T11:13:33.443Z,997.40
2022-10-08T11:14:33.439Z,997.41
2022-10-08T11:15:33.473Z,997.41
2022-10-08T11:16:33.418Z,997.44
2022-10-08T11:17:33.435Z,997.42
2022-10-08T11:18:33.411Z,997.47
2022-10-08T11:19:33.426Z,997.45
2022-10-08T11:20:33.389Z,997.41
2022-10-08T11:21:33.391Z,997.36
2022-10-08T11:22:33.378Z,997.40
2022-10-08T11:23:33.362Z,997.46
2022-10-08T11:24:33.357Z,997.45
2022-10-08T11:25:44.903Z,997.48
2022-10-08T11:26:35.342Z,997.47
2022-10-08T11:27:33.346Z,997.47
2022-10-08T11:28:33.418Z,997.43
2022-10-08T11:29:34.139Z,997.45
2022-10-08T11:30:33.308Z,997.47
2022-10-08T11:31:33.299Z,997.46
2022-10-08T11:32:33.292Z,997.51
2022-10-08T11:33:33.297Z,997.52
2022-10-08T11:34:33.274Z,997.56
2022-10-08T11:35:33.275Z,997.52
2022-10-08T11:36:33.389Z,997.48
2022-10-08T11:37:33.252Z,997.52
2022-10-08T11:38:33.252Z,997.52
2022-10-08T11:39:33.220Z,997.50
2022-10-08T11:40:34.236Z,997.53
2022-10-08T11:41:33.219Z,997.47
2022-10-08T11:42:37.912Z,997.48
2022-10-08T11:43:35.211Z,997.46
2022-10-08T11:44:33.211Z,997.50
2022-10-08T11:45:33.194Z,997.50
2022-10-08T11:46:33.237Z,997.51
2022-10-08T11:47:33.172Z,997.48
2022-10-08T11:48:33.173Z,997.47
2022-10-08T11:49:33.714Z,997.50
2022-10-08T11:50:33.143Z,997.50
2022-10-08T11:51:33.156Z,997.52
2022-10-08T11:52:33.140Z,997.56
2022-10-08T11:53:33.125Z,997.51
2022-10-08T11:54:33.146Z,997.56
2022-10-08T11:55:33.107Z,997.53
2022-10-08T11:56:33.105Z,997.56
2022-10-08T11:57:49.339Z,997.51
2022-10-08T11:58:35.091Z,997.53
2022-10-08T11:59:33.069Z,997.51
2022-10-08T12:00:33.066Z,997.50
2022-10-08T12:01:33.062Z,997.47
2022-10-08T12:02:33.151Z,997.49
2022-10-08T12:03:33.836Z,997.44
2022-10-08T12:04:33.045Z,997.41
2022-10-08T12:05:33.038Z,997.45
2022-10-08T12:06:33.018Z,997.43
2022-10-08T12:07:33.011Z,997.42
2022-10-08T12:08:32.999Z,997.43
2022-10-08T12:09:32.991Z,997.37
2022-10-08T12:10:33.001Z,997.39
2022-10-08T12:11:32.985Z,997.36
2022-10-08T12:12:32.975Z,997.39
2022-10-08T12:13:32.977Z,997.44
2022-10-08T12:14:32.955Z,997.42
2022-10-08T12:15:32.949Z,997.40
2022-10-08T12:16:32.974Z,997.44
2022-10-08T12:17:32.927Z,997.45
2022-10-08T12:18:32.923Z,997.35
2022-10-08T12:19:32.917Z,997.42
2022-10-08T12:20:32.896Z,997.41
2022-10-08T12:21:32.891Z,997.45
2022-10-08T12:22:32.883Z,997.38
2022-10-08T12:23:32.878Z,997.40
2022-10-08T12:24:32.877Z,997.32
2022-10-08T12:25:32.898Z,997.35
2022-10-08T12:26:32.855Z,997.34
2022-10-08T12:27:32.863Z,997.29
2022-10-08T12:28:32.912Z,997.29
2022-10-08T12:29:32.834Z,997.24
2022-10-08T12:30:32.879Z,997.33